Time;durP1;ratioP1;P1;durP2;ratioP2;P2;SDS_P1;SDS_P2;PMS_P1;PMS_P2;Temp;Humidity;BMP_temperature;BMP_pressure;BME280_temperature;BME280_humidity;BME280_pressure;Samples;Min_cycle;Max_cycle;Signal;HPM_P1;HPM_P2
2023/05/03 00:01:43;;;;;;;5.35;2.25;;;;;;;23.79;39.06;99940.25;4346894;33;34356;-61
2023/05/03 00:04:14;;;;;;;5.62;2.78;;;;;;;23.79;39.02;99938.34;4346618;33;34969;-61
2023/05/03 00:06:43;;;;;;;6.80;2.42;;;;;;;23.79;39.06;99938.34;4347148;33;34011;-60
2023/05/03 00:09:11;;;;;;;4.55;2.47;;;;;;;23.79;39.11;99938.34;4347036;33;34145;-62
2023/05/03 00:11:40;;;;;;;;;;;;;;;23.80;39.13;99936.47;4346930;33;34569;-61
2023/05/03 00:14:08;;;;;;;6.10;2.00;;;;;;;23.88;38.95;99936.16;4346795;33;34278;-61
2023/05/03 00:16:35;;;;;;;5.53;2.10;;;;;;;23.81;39.07;99936.22;4346670;33;34204;-62
2023/05/03 00:19:03;;;;;;;4.18;2.10;;;;;;;23.78;39.12;99935.84;4346539;33;34294;-59
2023/05/03 00:21:30;;;;;;;4.43;2.40;;;;;;;23.77;39.12;99937.72;4346670;33;33597;-63
2023/05/03 00:23:58;;;;;;;3.67;1.92;;;;;;;23.77;39.12;99937.72;4346604;33;33742;-60
2023/05/03 00:26:26;;;;;;;3.78;1.95;;;;;;;23.78;39.11;99935.84;4346491;33;33810;-59
2023/05/03 00:28:54;;;;;;;4.03;2.20;;;;;;;23.78;39.11;99935.84;4346792;33;34237;-62
2023/05/03 00:31:21;;;;;;;4.25;2.37;;;;;;;23.78;39.10;99941.28;4346616;33;34438;-59
2023/05/03 00:33:49;;;;;;;5.90;2.42;;;;;;;23.78;39.10;99931.25;4346363;33;34801;-63
2023/05/03 00:36:16;;;;;;;3.40;2.33;;;;;;;23.78;39.08;99933.09;4346421;33;34868;-60
2023/05/03 00:38:44;;;;;;;4.37;2.12;;;;;;;23.78;39.09;99933.09;4346651;33;33918;-62
2023/05/03 00:41:12;;;;;;;8.35;2.60;;;;;;;23.78;39.09;99944.00;4346253;33;33113;-63
2023/05/03 00:43:39;;;;;;;3.87;1.75;;;;;;;23.78;39.08;99946.72;4346418;33;34111;-63
2023/05/03 00:46:07;;;;;;;4.87;2.08;;;;;;;23.77;39.08;99945.91;4346314;33;34791;-61
2023/05/03 00:48:47;;;;;;;6.22;2.10;;;;;;;23.77;39.09;99935.00;4322761;33;34050;-60
2023/05/03 00:51:15;;;;;;;5.40;2.20;;;;;;;23.77;39.09;99948.63;4332890;33;33673;-60
2023/05/03 00:53:42;;;;;;;4.10;2.10;;;;;;;23.77;39.07;99948.63;4346125;33;34901;-62
2023/05/03 00:56:10;;;;;;;3.92;2.15;;;;;;;23.76;39.04;99955.13;4347282;33;34792;-60
2023/05/03 00:58:39;;;;;;;4.90;2.40;;;;;;;23.75;39.00;99950.75;4334746;33;33977;-62
2023/05/03 01:01:07;;;;;;;5.37;2.25;;;;;;;23.75;39.01;99961.66;4347907;33;33493;-60
2023/05/03 01:03:36;;;;;;;3.22;1.80;;;;;;;23.75;39.06;99960.81;4347797;33;34157;-62
2023/05/03 01:06:12;;;;;;;4.22;2.12;;;;;;;23.74;39.01;99960.00;4334679;33;34754;-62
2023/05/03 01:08:45;;;;;;;4.65;2.10;;;;;;;23.74;39.02;99968.16;4334567;33;35039;-63
2023/05/03 01:11:22;;;;;;;4.03;2.05;;;;;;;23.73;39.02;99961.03;4334617;33;33650;-61
2023/05/03 01:14:00;;;;;;;3.65;1.98;;;;;;;23.75;39.00;99969.81;4347800;33;34129;-62
2023/05/03 01:16:31;;;;;;;4.45;2.10;;;;;;;23.74;38.99;99967.34;4334642;33;34154;-62
2023/05/03 01:19:01;;;;;;;3.87;1.95;;;;;;;23.73;38.97;99968.38;4322558;33;34359;-60
2023/05/03 01:21:29;;;;;;;4.75;2.12;;;;;;;23.72;38.93;99964.81;4335064;33;33257;-58
2023/05/03 01:24:07;;;;;;;3.75;2.10;;;;;;;23.73;38.93;99971.91;4347906;33;33946;-62
2023/05/03 01:26:35;;;;;;;3.72;2.50;;;;;;;23.74;38.96;99959.16;4347704;33;34008;-63
2023/05/03 01:29:02;;;;;;;4.68;2.03;;;;;;;23.72;38.98;99966.72;4334640;33;35116;-60
2023/05/03 01:31:42;;;;;;;4.95;2.17;;;;;;;23.72;38.97;99964.81;4347847;33;33503;-62
2023/05/03 01:34:16;;;;;;;2.90;1.87;;;;;;;23.74;38.99;99964.63;4334670;33;33947;-62
2023/05/03 01:36:43;;;;;;;4.15;1.90;;;;;;;23.73;39.03;99960.19;4347871;33;34896;-60
2023/05/03 01:39:20;;;;;;;3.65;1.90;;;;;;;23.71;39.02;99956.88;4347881;33;34373;-62
2023/05/03 01:41:49;;;;;;;6.93;2.53;;;;;;;23.72;39.07;99958.53;4347858;33;33569;-63
2023/05/03 01:44:18;;;;;;;8.05;2.40;;;;;;;23.70;39.13;99957.94;4334444;33;34010;-61
2023/05/03 01:46:46;;;;;;;3.50;2.17;;;;;;;23.70;39.17;99953.31;4322322;33;33745;-61
2023/05/03 01:49:13;;;;;;;3.87;2.00;;;;;;;23.71;39.22;99960.44;4347716;33;33859;-62
2023/05/03 01:51:41;;;;;;;5.80;2.20;;;;;;;23.72;39.28;99963.97;4347744;33;34554;-62
2023/05/03 01:54:10;;;;;;;12.75;2.37;;;;;;;23.70;39.23;99956.03;4355887;32;34078;-63
2023/05/03 01:56:38;;;;;;;3.42;1.95;;;;;;;23.72;39.17;99953.09;4362427;32;34010;-61
2023/05/03 01:59:05;;;;;;;4.00;1.92;;;;;;;23.72;39.23;99953.09;4362221;32;34087;-62
2023/05/03 02:01:33;;;;;;;3.45;2.00;;;;;;;23.71;39.15;99948.72;4362820;32;33115;-62
2023/05/03 02:04:01;;;;;;;3.92;1.98;;;;;;;23.71;39.13;99945.97;4362340;32;33966;-62
2023/05/03 02:06:28;;;;;;;3.45;1.90;;;;;;;23.70;39.16;99947.03;4361672;32;34132;-62
2023/05/03 02:08:58;;;;;;;5.18;1.95;;;;;;;23.71;39.07;99945.97;4362174;32;34319;-60
2023/05/03 02:11:26;;;;;;;5.18;2.10;;;;;;;23.71;39.09;99948.72;4362300;32;34398;-59
2023/05/03 02:13:53;;;;;;;4.35;1.90;;;;;;;23.70;39.09;99938.88;4362208;32;34682;-62
2023/05/03 02:16:21;;;;;;;4.43;2.08;;;;;;;23.70;39.11;99938.88;4362341;32;34256;-60
2023/05/03 02:18:50;;;;;;;4.15;2.35;;;;;;;23.68;39.13;99939.91;4362374;32;34750;-61
2023/05/03 02:21:18;;;;;;;4.62;2.08;;;;;;;23.68;39.12;99939.91;4362300;32;34534;-62
2023/05/03 02:23:45;;;;;;;3.35;2.20;;;;;;;23.70;39.14;99941.59;4362259;32;34110;-62
2023/05/03 02:26:13;;;;;;;4.90;1.90;;;;;;;23.68;39.21;99939.91;4362403;32;33910;-61
2023/05/03 02:28:41;;;;;;;4.85;1.90;;;;;;;23.67;39.36;99943.69;4362086;32;34271;-62
2023/05/03 02:31:08;;;;;;;4.93;2.20;;;;;;;23.68;39.38;99934.47;4362329;32;33588;-59
2023/05/03 02:33:36;;;;;;;4.47;2.20;;;;;;;23.69;39.40;99935.31;4362350;32;34440;-60
2023/05/03 02:36:04;;;;;;;5.20;2.55;;;;;;;23.70;39.38;99925.25;4362124;32;33739;-59
2023/05/03 02:38:32;;;;;;;4.85;2.45;;;;;;;23.68;39.30;99920.84;4362212;32;34323;-60
2023/05/03 02:40:59;;;;;;;5.50;2.45;;;;;;;23.70;39.31;99925.25;4362305;32;33850;-59
2023/05/03 02:43:27;;;;;;;4.28;2.30;;;;;;;23.69;39.33;99918.97;4362110;32;34062;-59
2023/05/03 02:45:56;;;;;;;6.80;2.80;;;;;;;23.70;39.34;99922.53;4362228;32;34079;-59
2023/05/03 02:48:24;;;;;;;6.22;1.90;;;;;;;23.69;39.34;99918.97;4362408;32;35104;-59
2023/05/03 02:50:53;;;;;;;4.57;2.87;;;;;;;23.69;39.40;99921.69;4362237;32;33622;-61
2023/05/03 02:53:21;;;;;;;4.90;2.92;;;;;;;23.67;39.44;99921.91;4362243;32;34781;-61
2023/05/03 02:55:50;;;;;;;4.25;2.62;;;;;;;23.67;39.45;99916.44;4348898;32;34078;-57
2023/05/03 02:58:17;;;;;;;4.37;2.58;;;;;;;23.66;39.46;99917.53;4362104;32;34443;-59
2023/05/03 03:00:45;;;;;;;3.95;2.60;;;;;;;23.65;39.52;99926.75;4362416;32;33573;-60
2023/05/03 03:03:15;;;;;;;4.90;2.65;;;;;;;23.65;39.58;99920.47;4349037;32;34767;-59
2023/05/03 03:05:42;;;;;;;5.95;2.70;;;;;;;23.66;39.60;99916.69;4361940;32;34898;-59
2023/05/03 03:08:10;;;;;;;5.25;3.03;;;;;;;23.64;39.63;99914.19;4362124;32;34091;-60
2023/05/03 03:10:38;;;;;;;4.87;2.55;;;;;;;23.65;39.69;99917.75;4361846;32;33183;-58
2023/05/03 03:13:05;;;;;;;4.57;2.70;;;;;;;23.63;39.72;99915.19;4336742;32;35294;-58
2023/05/03 03:15:33;;;;;;;4.62;2.83;;;;;;;23.62;39.74;99908.09;4362291;32;34530;-58
2023/05/03 03:18:01;;;;;;;4.43;2.37;;;;;;;23.62;39.76;99916.25;4361342;32;34201;-57
2023/05/03 03:20:29;;;;;;;4.62;3.00;;;;;;;23.62;39.79;99915.44;4362255;32;34430;-59
2023/05/03 03:22:57;;;;;;;4.03;2.62;;;;;;;23.61;39.82;99909.16;4361850;32;34689;-57
2023/05/03 03:25:25;;;;;;;6.50;3.12;;;;;;;23.61;39.83;99920.06;4361752;32;34026;-60
2023/05/03 03:27:55;;;;;;;6.83;2.90;;;;;;;23.61;39.87;99922.78;4362261;32;34054;-59
2023/05/03 03:30:22;;;;;;;4.62;2.47;;;;;;;23.61;39.87;99922.78;4361958;32;33766;-59
2023/05/03 03:32:51;;;;;;;4.97;3.12;;;;;;;23.60;39.93;99929.28;4362093;32;33611;-59
2023/05/03 03:35:21;;;;;;;4.57;2.72;;;;;;;23.59;39.96;99922.16;4362135;32;34821;-60
2023/05/03 03:37:50;;;;;;;6.37;2.70;;;;;;;23.60;39.97;99928.47;4348889;32;34080;-60
2023/05/03 03:40:18;;;;;;;4.87;2.75;;;;;;;23.59;40.02;99927.59;4362036;32;34366;-59
2023/05/03 03:42:46;;;;;;;4.28;2.90;;;;;;;23.59;40.02;99927.59;4362256;32;34781;-61
2023/05/03 03:45:14;;;;;;;5.12;3.10;;;;;;;23.59;40.05;99924.87;4361822;32;34019;-58
2023/05/03 03:47:41;;;;;;;6.07;3.30;;;;;;;23.59;40.09;99924.03;4357737;32;34300;-59
2023/05/03 03:50:09;;;;;;;4.53;2.92;;;;;;;23.59;40.07;99929.50;4346954;33;33696;-59
2023/05/03 03:52:38;;;;;;;4.20;2.67;;;;;;;23.57;40.12;99937.91;4347070;33;34092;-62
2023/05/03 03:55:06;;;;;;;3.90;2.62;;;;;;;23.58;40.17;99936.00;4347250;33;34056;-59
2023/05/03 03:57:33;;;;;;;4.53;3.08;;;;;;;23.58;40.13;99936.84;4346925;33;34590;-60
2023/05/03 04:00:09;;;;;;;4.20;2.58;;;;;;;23.58;40.17;99942.28;4346767;33;33843;-59
2023/05/03 04:02:38;;;;;;;6.25;3.53;;;;;;;23.58;40.18;99942.28;4346969;33;33885;-59
2023/05/03 04:05:08;;;;;;;4.65;2.95;;;;;;;23.57;40.27;99943.34;4346726;33;33998;-59
2023/05/03 04:07:35;;;;;;;7.43;3.00;;;;;;;23.58;40.26;99949.63;4360059;32;33802;-59
2023/05/03 04:10:03;;;;;;;5.78;3.17;;;;;;;23.57;40.29;99953.41;4361940;32;33578;-58
2023/05/03 04:12:32;;;;;;;4.72;2.87;;;;;;;23.57;40.35;99950.69;4361908;32;33902;-59
2023/05/03 04:15:01;;;;;;;4.47;3.12;;;;;;;23.57;40.36;99959.69;4361379;32;34626;-59
2023/05/03 04:17:28;;;;;;;8.52;3.28;;;;;;;23.56;40.39;99955.31;4361920;32;34985;-60
2023/05/03 04:19:56;;;;;;;4.82;2.90;;;;;;;23.56;40.39;99966.19;4361295;32;33763;-59
2023/05/03 04:22:24;;;;;;;5.37;3.15;;;;;;;23.55;40.38;99970.00;4361660;32;33648;-59
2023/05/03 04:24:53;;;;;;;5.10;3.33;;;;;;;23.55;40.40;99961.81;4361413;32;34177;-59
2023/05/03 04:27:21;;;;;;;4.53;3.00;;;;;;;23.55;40.36;99975.44;4361566;32;35039;-60
2023/05/03 04:29:49;;;;;;;4.60;2.90;;;;;;;23.57;40.35;99972.47;4360655;32;34707;-57
2023/05/03 04:32:22;;;;;;;7.82;3.67;;;;;;;23.56;40.41;99971.66;4361611;32;33372;-61
2023/05/03 04:34:51;;;;;;;6.55;2.90;;;;;;;23.55;40.40;99975.44;4361422;32;33732;-62
2023/05/03 04:37:22;;;;;;;6.35;3.03;;;;;;;23.56;40.45;99982.53;4361471;32;33980;-62
2023/05/03 04:39:49;;;;;;;5.55;2.83;;;;;;;23.56;40.42;99982.53;4361413;32;34531;-61
2023/05/03 04:42:18;;;;;;;6.32;2.60;;;;;;;23.57;40.36;99980.66;4361229;32;34575;-62
2023/05/03 04:44:46;;;;;;;7.28;2.62;;;;;;;23.57;40.38;99983.38;4361412;32;34020;-60
2023/05/03 04:47:14;;;;;;;6.93;2.90;;;;;;;23.57;40.25;99980.66;4361229;32;34308;-61
2023/05/03 04:49:41;;;;;;;4.43;2.70;;;;;;;23.56;40.15;99993.44;4360974;32;34744;-61
2023/05/03 04:52:09;;;;;;;5.15;2.78;;;;;;;23.58;40.09;99988.59;4361153;32;34805;-61
2023/05/03 04:54:37;;;;;;;4.80;2.62;;;;;;;23.58;40.06;99993.22;4361122;32;34316;-62
2023/05/03 04:57:05;;;;;;;3.87;2.25;;;;;;;23.58;40.02;99991.31;4361136;32;33862;-61
2023/05/03 04:59:33;;;;;;;4.97;2.67;;;;;;;23.58;40.02;99999.47;4360985;32;33494;-62
2023/05/03 05:02:01;;;;;;;6.37;3.35;;;;;;;23.59;40.02;100003.88;4361229;32;33445;-62
2023/05/03 05:04:29;;;;;;;5.03;2.78;;;;;;;23.58;40.01;100002.22;4360776;32;33544;-62
2023/05/03 05:06:58;;;;;;;5.47;2.95;;;;;;;23.60;40.02;100012.91;4347623;32;34366;-61
2023/05/03 05:09:27;;;;;;;;;;;;;;;23.60;40.01;100018.34;4347298;32;33296;-62
2023/05/03 05:11:55;;;;;;;4.28;2.85;;;;;;;23.68;39.79;100009.91;4361104;32;34006;-62
2023/05/03 05:14:25;;;;;;;4.33;2.50;;;;;;;23.61;39.92;100009.94;4360836;32;34051;-61
2023/05/03 05:16:53;;;;;;;4.30;2.30;;;;;;;23.59;39.98;100014.75;4360930;32;33948;-61
2023/05/03 05:19:21;;;;;;;4.90;2.90;;;;;;;23.60;40.00;100010.19;4347393;32;33790;-60
2023/05/03 05:21:48;;;;;;;5.30;2.50;;;;;;;23.59;40.13;100011.22;4347147;32;33790;-61
2023/05/03 05:24:16;;;;;;;6.70;2.37;;;;;;;23.59;40.20;100003.03;4360494;32;34833;-60
2023/05/03 05:26:44;;;;;;;5.20;2.50;;;;;;;23.60;40.29;100008.28;4347184;32;34722;-60
2023/05/03 05:29:12;;;;;;;4.87;2.50;;;;;;;23.60;40.46;100011.00;4347271;32;34573;-62
2023/05/03 05:31:40;;;;;;;7.93;2.58;;;;;;;23.60;40.63;100013.72;4360469;32;34431;-62
2023/05/03 05:34:07;;;;;;;6.75;2.42;;;;;;;23.61;40.79;100015.38;4358127;32;82314;-62
2023/05/03 05:36:35;;;;;;;4.20;2.42;;;;;;;23.63;40.94;100015.16;4360653;32;33975;-62
2023/05/03 05:39:04;;;;;;;4.40;2.45;;;;;;;23.63;41.00;100015.16;4360255;32;33741;-63
2023/05/03 05:41:31;;;;;;;6.28;2.67;;;;;;;23.63;41.02;100023.34;4347766;32;33576;-62
2023/05/03 05:43:59;;;;;;;6.60;2.95;;;;;;;23.62;41.07;100027.94;4362842;32;33544;-62
2023/05/03 05:46:27;;;;;;;5.40;2.72;;;;;;;23.63;41.12;100024.16;4362921;32;34340;-62
2023/05/03 05:48:55;;;;;;;5.43;2.47;;;;;;;23.64;41.15;100023.16;4350855;32;33374;-61
2023/05/03 05:51:22;;;;;;;8.02;2.67;;;;;;;23.64;41.13;100023.16;4347890;33;34707;-63
2023/05/03 05:53:50;;;;;;;6.70;2.58;;;;;;;23.65;41.16;100024.00;4347559;33;34220;-61
2023/05/03 05:56:18;;;;;;;2.92;1.87;;;;;;;23.65;41.15;100032.16;4515822;27;34021;-63
2023/05/03 06:01:56;;;;;;;;;;;;;;;23.65;41.10;100033.00;4802670;27;20077;-85
2023/05/03 06:04:24;;;;;;;4.60;2.17;;;;;;;23.73;40.95;100037.31;4391424;32;37593;-85
2023/05/03 06:06:52;;;;;;;3.53;2.15;;;;;;;23.65;41.08;100041.16;4391161;32;34448;-89
2023/05/03 06:09:20;;;;;;;5.03;2.60;;;;;;;23.63;41.11;100045.97;4390786;32;34631;-86
2023/05/03 06:11:52;;;;;;;5.72;2.83;;;;;;;23.63;41.11;100045.97;4389753;32;34171;-89
2023/05/03 06:14:20;;;;;;;5.43;2.70;;;;;;;23.64;41.05;100057.72;4389830;32;34978;-88
2023/05/03 06:16:48;;;;;;;5.28;2.50;;;;;;;23.63;41.05;100059.56;4390940;32;35373;-72
2023/05/03 06:19:16;;;;;;;4.53;2.33;;;;;;;23.64;41.01;100058.56;4392006;32;35012;-83
2023/05/03 06:21:43;;;;;;;4.07;2.35;;;;;;;23.64;41.01;100065.88;4379227;32;35437;-82
2023/05/03 06:27:27;;;;;;;;;;;;;;;23.65;40.95;100068.41;4799000;27;20106;31
2023/05/03 06:29:56;;;;;;;4.53;2.40;;;;;;;23.73;40.80;100061.00;4429896;27;34222;-74
2023/05/03 06:32:23;;;;;;;4.50;2.12;;;;;;;23.66;40.93;100077.41;4391994;32;35137;-83
2023/05/03 06:34:52;;;;;;;5.53;2.42;;;;;;;23.64;40.99;100077.66;4391662;32;36117;-81
2023/05/03 06:37:20;;;;;;;4.85;2.53;;;;;;;23.63;40.99;100075.91;4672141;27;34671;-87
2023/05/03 06:39:49;;;;;;;4.82;2.60;;;;;;;23.63;40.98;100083.25;4392450;32;35060;-83
2023/05/03 06:42:31;;;;;;;3.87;2.47;;;;;;;23.63;40.97;100084.09;4493519;27;35229;31
2023/05/03 06:51:17;;;;;;;4.50;2.70;;;;;;;23.63;40.97;100086.81;5109107;27;20104;-79
2023/05/03 06:53:45;;;;;;;3.83;2.22;;;;;;;23.63;40.98;100088.72;4360028;33;34955;-85
2023/05/03 06:56:12;;;;;;;6.03;2.22;;;;;;;23.62;41.00;100087.87;4360833;32;34297;-86
2023/05/03 06:58:40;;;;;;;4.95;2.17;;;;;;;23.63;41.02;100084.09;4360381;33;34402;-94
2023/05/03 07:01:07;;;;;;;6.70;2.60;;;;;;;23.64;41.07;100084.94;4600748;27;34123;-71
2023/05/03 07:06:34;;;;;;;5.28;2.15;;;;;;;23.65;41.15;100084.75;4390379;32;20093;-86
2023/05/03 07:09:36;;;;;;;5.03;2.20;;;;;;;23.64;41.21;100088.53;4342886;31;20111;-86
2023/05/03 07:12:32;;;;;;;2.95;1.90;;;;;;;23.65;41.25;100092.09;4687233;27;20116;-84
2023/05/03 07:24:03;;;;;;;5.32;2.25;;;;;;;23.65;41.14;100089.38;4387785;27;34582;-95
2023/05/03 07:26:30;;;;;;;3.75;2.20;;;;;;;23.64;41.11;100091.25;4361968;32;35279;-85
2023/05/03 07:28:58;;;;;;;5.53;2.20;;;;;;;23.64;41.09;100090.41;4358755;32;35074;-84
2023/05/03 07:31:26;;;;;;;3.20;2.40;;;;;;;23.65;41.06;100083.94;4360027;32;35475;-93
2023/05/03 07:33:53;;;;;;;4.07;2.37;;;;;;;23.65;41.02;100090.19;4360527;33;34997;-91
2023/05/03 07:36:21;;;;;;;3.37;2.15;;;;;;;23.65;40.98;100087.47;4361721;33;35329;-86
2023/05/03 07:38:48;;;;;;;4.47;2.42;;;;;;;23.64;40.97;100080.38;4361474;32;35384;-82
2023/05/03 07:41:16;;;;;;;4.47;2.20;;;;;;;23.66;40.91;100085.59;4360922;33;35552;-90
2023/05/03 07:43:43;;;;;;;4.93;2.30;;;;;;;23.66;40.88;100083.69;4567142;27;35137;-81
2023/05/03 07:49:16;;;;;;;4.68;2.35;;;;;;;23.67;40.80;100088.06;4790441;27;20007;-76
2023/05/03 07:51:44;;;;;;;4.47;2.22;;;;;;;23.67;40.80;100079.91;4530113;27;35443;-87
2023/05/03 07:54:24;;;;;;;6.82;1.95;;;;;;;23.67;40.80;100085.34;4514514;27;35102;31
2023/05/03 07:56:59;;;;;;;9.15;2.37;;;;;;;23.69;40.83;100087.87;5119437;27;34548;31
2023/05/03 08:02:26;;;;;;;9.60;2.53;;;;;;;23.69;40.93;100085.16;4789877;27;35042;-70
2023/05/03 08:04:55;;;;;;;4.57;2.55;;;;;;;23.70;40.99;100085.97;4513940;27;35462;-88
2023/05/03 08:07:22;;;;;;;4.53;2.20;;;;;;;23.70;40.99;100094.16;4386659;32;34420;-75
2023/05/03 08:09:52;;;;;;;4.97;2.40;;;;;;;23.70;41.00;100096.88;4427702;27;34290;-65
2023/05/03 08:12:20;;;;;;;5.40;2.00;;;;;;;23.68;40.97;100097.91;4376209;32;34208;-65
2023/05/03 08:14:47;;;;;;;5.75;2.25;;;;;;;23.71;40.93;100098.53;4376216;32;33819;-65
2023/05/03 08:17:15;;;;;;;4.20;2.10;;;;;;;23.71;40.93;100101.28;4382175;32;34694;-65
2023/05/03 08:19:42;;;;;;;4.35;2.20;;;;;;;23.70;40.94;100108.59;4379659;32;34167;-64
2023/05/03 08:22:11;;;;;;;5.03;2.25;;;;;;;23.71;40.96;100106.72;4376213;32;35013;-65
2023/05/03 08:24:38;;;;;;;2.87;2.05;;;;;;;23.71;40.96;100102.09;4369945;32;33372;-65
2023/05/03 08:27:07;;;;;;;5.78;2.37;;;;;;;23.72;40.96;100102.94;4369961;32;33938;-64
2023/05/03 08:29:36;;;;;;;4.45;2.50;;;;;;;23.71;40.94;100099.38;4346846;32;33397;-65
2023/05/03 08:32:04;;;;;;;5.22;2.15;;;;;;;23.74;40.96;100103.56;4333382;33;34821;-63
2023/05/03 08:34:31;;;;;;;4.12;2.20;;;;;;;23.75;40.94;100094.31;4346420;33;34550;-65
2023/05/03 08:36:59;;;;;;;3.03;2.10;;;;;;;23.72;40.95;100098.31;4346412;33;34848;-65
2023/05/03 08:39:26;;;;;;;3.72;2.17;;;;;;;23.73;40.95;100099.97;4346535;33;34538;-64
2023/05/03 08:41:54;;;;;;;5.87;2.37;;;;;;;23.75;40.93;100105.22;4354345;32;34066;-65
2023/05/03 08:44:22;;;;;;;4.43;2.03;;;;;;;23.75;40.90;100107.94;4361436;32;33724;-64
2023/05/03 08:46:51;;;;;;;4.12;2.37;;;;;;;23.75;40.93;100105.22;4361225;32;33792;-63
2023/05/03 08:49:20;;;;;;;4.80;2.37;;;;;;;23.75;40.88;100105.22;4361188;32;34014;-63
2023/05/03 08:51:48;;;;;;;4.30;2.15;;;;;;;23.76;40.89;100112.34;4347686;32;34052;-62
2023/05/03 08:54:17;;;;;;;3.47;2.20;;;;;;;23.74;40.87;100109.84;4350310;32;33654;-63
2023/05/03 08:56:46;;;;;;;7.85;2.10;;;;;;;23.75;40.84;100119.69;4376008;32;34846;-62
2023/05/03 08:59:15;;;;;;;4.28;2.20;;;;;;;23.76;40.84;100115.88;4375955;32;33580;-63
2023/05/03 09:01:43;;;;;;;4.30;2.20;;;;;;;23.75;40.83;100111.50;4376207;32;33905;-63
2023/05/03 09:04:11;;;;;;;5.65;2.45;;;;;;;23.78;40.82;100118.37;4375776;32;33691;-64
2023/05/03 09:06:39;;;;;;;6.50;3.60;;;;;;;23.78;40.82;100113.78;4356482;32;34005;-64
2023/05/03 09:09:07;;;;;;;6.57;4.03;;;;;;;23.74;41.47;100114.47;4346327;33;34136;-64
2023/05/03 09:11:36;;;;;;;7.03;4.30;;;;;;;23.73;41.61;100118.22;4359094;32;33471;-66
2023/05/03 09:14:07;;;;;;;5.78;4.10;;;;;;;23.66;42.38;100113.66;4359670;32;34536;-65
2023/05/03 09:16:35;;;;;;;7.47;4.97;;;;;;;23.63;42.14;100111.34;4359924;32;33828;-65
2023/05/03 09:19:05;;;;;;;6.15;4.00;;;;;;;23.64;42.06;100123.09;4361685;32;34030;-63
2023/05/03 09:21:32;;;;;;;6.55;4.25;;;;;;;23.64;42.08;100121.22;4361650;32;34207;-65
2023/05/03 09:24:02;;;;;;;7.50;4.03;;;;;;;23.64;42.07;100121.22;4348279;32;33773;-65
2023/05/03 09:26:31;;;;;;;9.43;3.78;;;;;;;23.63;42.03;100121.41;4361288;32;34008;-66
2023/05/03 09:29:01;;;;;;;6.62;3.97;;;;;;;23.64;41.93;100112.19;4361571;32;34140;-64
2023/05/03 09:31:30;;;;;;;7.57;3.97;;;;;;;23.63;41.94;100124.94;4362667;32;34271;-65
2023/05/03 09:33:57;;;;;;;8.60;4.10;;;;;;;23.63;41.83;100124.94;4361576;32;34210;-66
2023/05/03 09:36:26;;;;;;;7.05;4.22;;;;;;;23.64;42.02;100125.81;4361390;32;33856;-66
2023/05/03 09:38:54;;;;;;;6.95;3.80;;;;;;;23.63;42.03;100122.22;4361424;32;34071;-64
2023/05/03 09:41:29;;;;;;;7.22;4.03;;;;;;;23.63;41.96;100111.34;4361708;32;34199;-63
2023/05/03 09:44:01;;;;;;;5.78;3.85;;;;;;;23.63;41.82;100105.88;4361466;32;34444;-63
2023/05/03 09:46:29;;;;;;;7.32;4.00;;;;;;;23.64;41.90;100117.66;4361276;32;34704;-64
2023/05/03 09:48:57;;;;;;;5.93;3.90;;;;;;;23.64;41.91;100112.19;4361312;32;34840;-64
2023/05/03 09:51:25;;;;;;;6.00;3.40;;;;;;;23.64;41.89;100114.91;4358795;32;34266;-66
2023/05/03 09:53:52;;;;;;;6.90;4.15;;;;;;;23.64;41.89;100113.06;4361191;32;34445;-65
2023/05/03 09:56:25;;;;;;;6.82;4.18;;;;;;;23.62;41.89;100115.13;4347882;32;34787;-65
2023/05/03 09:58:53;;;;;;;5.65;3.40;;;;;;;23.63;41.92;100119.50;4348380;32;34873;-65
2023/05/03 10:01:23;;;;;;;6.78;4.03;;;;;;;23.64;41.99;100118.50;4362136;32;33960;-67
2023/05/03 10:03:53;;;;;;;4.82;3.62;;;;;;;23.64;41.97;100112.19;4349565;32;33783;-67
2023/05/03 10:06:31;;;;;;;6.62;3.55;;;;;;;23.65;41.87;100105.72;4347984;32;33915;-65
2023/05/03 10:09:22;;;;;;;4.90;3.40;;;;;;;23.62;41.80;100104.22;4356002;32;34085;-65
2023/05/03 10:11:51;;;;;;;5.25;3.40;;;;;;;23.67;41.81;100098.97;4360811;32;33905;-65
2023/05/03 10:14:20;;;;;;;5.37;3.47;;;;;;;23.65;41.78;100108.44;4361530;32;33328;-65
2023/05/03 10:16:48;;;;;;;5.07;3.10;;;;;;;23.64;41.71;100106.75;4358309;32;34782;-61
2023/05/03 10:19:26;;;;;;;5.07;3.42;;;;;;;23.65;41.70;100103.81;4336589;32;34966;-64
2023/05/03 10:22:07;;;;;;;5.05;3.60;;;;;;;23.67;41.58;100100.88;4356629;32;33795;-63
2023/05/03 10:24:55;;;;;;;5.47;3.08;;;;;;;23.66;41.45;100104.66;4359723;32;33732;-61
2023/05/03 10:27:23;;;;;;;6.62;3.10;;;;;;;23.67;41.38;100106.31;4376443;32;34089;-61
2023/05/03 10:29:50;;;;;;;5.10;3.33;;;;;;;23.66;41.32;100102.75;4351176;32;34982;-62
2023/05/03 10:32:41;;;;;;;4.75;3.50;;;;;;;23.67;41.29;100092.69;4367770;32;33851;-61
2023/05/03 10:35:13;;;;;;;4.10;3.15;;;;;;;23.67;41.30;100098.97;4362530;32;33420;-61
2023/05/03 10:37:41;;;;;;;4.95;3.12;;;;;;;23.66;41.26;100100.03;4362278;32;34853;-62
2023/05/03 10:40:13;;;;;;;5.45;3.50;;;;;;;23.66;41.17;100093.75;4362162;32;35010;-61
2023/05/03 10:42:53;;;;;;;5.20;3.22;;;;;;;23.66;41.14;100094.59;4362146;32;34027;-63
2023/05/03 10:45:27;;;;;;;5.30;3.22;;;;;;;23.66;41.10;100088.31;4362289;32;34649;-63
2023/05/03 10:48:09;;;;;;;4.50;3.17;;;;;;;23.66;41.06;100082.84;4362109;32;34559;-63
2023/05/03 10:50:37;;;;;;;5.28;3.17;;;;;;;23.67;41.02;100079.91;4362108;32;34077;-61
2023/05/03 10:53:05;;;;;;;4.12;2.70;;;;;;;23.65;41.00;100082.03;4362078;32;34047;-61
2023/05/03 10:55:33;;;;;;;4.28;2.87;;;;;;;23.65;40.98;100087.47;4362301;32;33819;-63
2023/05/03 10:58:00;;;;;;;3.90;2.62;;;;;;;23.65;40.97;100084.75;4362113;32;33494;-61
2023/05/03 11:00:40;;;;;;;6.30;3.00;;;;;;;23.66;40.93;100085.59;4362214;32;34914;-62
2023/05/03 11:03:22;;;;;;;4.25;2.62;;;;;;;23.66;40.91;100085.59;4361856;32;34325;-64
2023/05/03 11:05:51;;;;;;;3.62;2.58;;;;;;;23.66;40.88;100082.84;4348780;32;34513;-61
2023/05/03 11:08:19;;;;;;;4.70;2.83;;;;;;;23.66;40.87;100080.97;4362384;32;34048;-61
2023/05/03 11:10:48;;;;;;;4.70;2.83;;;;;;;23.64;40.88;100077.66;4353374;32;33557;-62
2023/05/03 11:13:16;;;;;;;4.50;2.60;;;;;;;23.65;40.86;100083.94;4358346;32;35059;-63
2023/05/03 11:15:43;;;;;;;5.07;2.65;;;;;;;23.64;40.84;100085.81;4363781;32;33595;-65
2023/05/03 11:18:14;;;;;;;5.25;2.75;;;;;;;23.64;40.80;100080.38;4334966;32;34045;-60
2023/05/03 11:20:42;;;;;;;4.00;2.80;;;;;;;23.65;40.79;100087.47;4348499;32;33660;-64
2023/05/03 11:23:10;;;;;;;5.40;2.75;;;;;;;23.64;40.77;100091.25;4335953;32;34955;-61
2023/05/03 11:25:38;;;;;;;4.00;2.58;;;;;;;23.64;40.77;100088.53;4361999;32;34443;-61
2023/05/03 11:28:05;;;;;;;5.82;2.60;;;;;;;23.64;40.75;100082.22;4361954;32;34165;-56
2023/05/03 11:30:33;;;;;;;4.03;2.50;;;;;;;23.65;40.73;100087.47;4361748;32;34056;-64
2023/05/03 11:33:01;;;;;;;4.65;2.60;;;;;;;23.65;40.72;100086.66;4361869;32;34940;-62
2023/05/03 11:35:29;;;;;;;5.12;2.80;;;;;;;23.63;40.72;100086.81;4348657;32;33285;-62
2023/05/03 11:37:57;;;;;;;5.50;2.33;;;;;;;23.64;40.71;100085.81;4361980;32;34080;-61
2023/05/03 11:40:24;;;;;;;4.85;2.67;;;;;;;23.63;40.70;100084.09;4361326;32;34548;-62
2023/05/03 11:42:57;;;;;;;4.25;2.62;;;;;;;23.63;40.69;100084.09;4346697;32;34317;-62
2023/05/03 11:45:25;;;;;;;4.70;2.85;;;;;;;23.64;40.67;100083.09;4361196;32;33584;-61
2023/05/03 11:47:53;;;;;;;3.83;2.60;;;;;;;23.63;40.65;100084.09;4360977;32;34091;-61
2023/05/03 11:50:54;;;;;;;3.65;2.70;;;;;;;23.64;40.64;100084.94;4360841;32;33728;-62
2023/05/03 11:53:23;;;;;;;3.75;2.33;;;;;;;23.67;40.60;100089.97;4347847;32;35045;-63
2023/05/03 11:55:53;;;;;;;3.83;2.67;;;;;;;23.64;40.60;100085.81;4348320;32;33830;-59
2023/05/03 11:58:25;;;;;;;4.07;2.60;;;;;;;23.62;40.61;100090.59;4361163;32;34104;-61
2023/05/03 12:00:54;;;;;;;4.32;2.65;;;;;;;23.62;40.61;100085.16;4347307;32;34055;-62
2023/05/03 12:03:27;;;;;;;3.92;2.53;;;;;;;23.62;40.60;100085.16;4360867;32;33755;-62
2023/05/03 12:05:58;;;;;;;3.45;2.37;;;;;;;23.63;40.58;100081.37;4361690;32;33435;-63
2023/05/03 12:08:29;;;;;;;3.33;2.30;;;;;;;23.63;40.55;100077.81;4335264;32;34758;-63
2023/05/03 12:11:01;;;;;;;6.03;2.87;;;;;;;23.64;40.53;100087.69;4359949;32;34816;-62